sensor_id;sensor_type;location;lat;lon;timestamp;pressure;altitude;pressure_sealevel;temperature;humidity
20710;BME280;10516;51.518;9.864;2023-10-09T00:01:04;99240.31;;;12.63;76.92
20710;BME280;10516;51.518;9.864;2023-10-09T00:03:34;99213.38;;;12.48;76.65
20710;BME280;10516;51.518;9.864;2023-10-09T00:06:02;99230.56;;;12.52;76.74
20710;BME280;10516;51.518;9.864;2023-10-09T00:08:28;99235.84;;;12.68;76.56
20710;BME280;10516;51.518;9.864;2023-10-09T00:10:58;99240.28;;;12.58;77.21
20710;BME280;10516;51.518;9.864;2023-10-09T00:13:41;99224.00;;;12.38;77.11
20710;BME280;10516;51.518;9.864;2023-10-09T00:16:15;99246.06;;;12.50;77.21
20710;BME280;10516;51.518;9.864;2023-10-09T00:18:41;99224.59;;;12.23;78.68
20710;BME280;10516;51.518;9.864;2023-10-09T00:21:19;99236.41;;;11.84;81.49
20710;BME280;10516;51.518;9.864;2023-10-09T00:23:48;99228.06;;;12.19;79.05
20710;BME280;10516;51.518;9.864;2023-10-09T00:26:27;99218.88;;;12.36;78.60
20710;BME280;10516;51.518;9.864;2023-10-09T00:28:55;99221.59;;;12.41;78.13
20710;BME280;10516;51.518;9.864;2023-10-09T00:31:20;99229.00;;;12.56;78.03
20710;BME280;10516;51.518;9.864;2023-10-09T00:33:56;99220.41;;;12.54;77.74
20710;BME280;10516;51.518;9.864;2023-10-09T00:36:21;99226.50;;;12.49;77.97
20710;BME280;10516;51.518;9.864;2023-10-09T00:38:52;99203.06;;;12.35;78.10
20710;BME280;10516;51.518;9.864;2023-10-09T00:41:17;99210.03;;;12.36;77.95
20710;BME280;10516;51.518;9.864;2023-10-09T00:43:47;99219.75;;;12.42;78.23
20710;BME280;10516;51.518;9.864;2023-10-09T00:46:16;99216.81;;;12.43;78.23
20710;BME280;10516;51.518;9.864;2023-10-09T00:48:47;99199.84;;;12.33;78.42
20710;BME280;10516;51.518;9.864;2023-10-09T00:51:13;99208.56;;;12.50;78.04
20710;BME280;10516;51.518;9.864;2023-10-09T00:53:52;99193.81;;;12.47;77.76
20710;BME280;10516;51.518;9.864;2023-10-09T00:56:22;99175.97;;;12.53;78.17
20710;BME280;10516;51.518;9.864;2023-10-09T00:58:51;99169.50;;;12.49;77.84
20710;BME280;10516;51.518;9.864;2023-10-09T01:01:22;99157.41;;;12.46;77.84
20710;BME280;10516;51.518;9.864;2023-10-09T01:03:53;99163.66;;;12.30;78.94
20710;BME280;10516;51.518;9.864;2023-10-09T01:06:19;99167.09;;;12.26;79.35
20710;BME280;10516;51.518;9.864;2023-10-09T01:08:46;99164.84;;;12.39;78.01
20710;BME280;10516;51.518;9.864;2023-10-09T01:11:35;99132.91;;;12.33;78.15
20710;BME280;10516;51.518;9.864;2023-10-09T01:14:12;99169.38;;;12.39;78.30
20710;BME280;10516;51.518;9.864;2023-10-09T01:16:38;99156.53;;;12.41;77.74
20710;BME280;10516;51.518;9.864;2023-10-09T01:19:08;99160.94;;;12.52;78.03
20710;BME280;10516;51.518;9.864;2023-10-09T01:21:50;99143.31;;;12.29;78.25
20710;BME280;10516;51.518;9.864;2023-10-09T01:24:16;99150.59;;;12.34;78.31
20710;BME280;10516;51.518;9.864;2023-10-09T01:26:42;99155.84;;;12.24;78.62
20710;BME280;10516;51.518;9.864;2023-10-09T01:29:20;99129.88;;;12.24;78.67
20710;BME280;10516;51.518;9.864;2023-10-09T01:31:51;99116.97;;;12.16;79.17
20710;BME280;10516;51.518;9.864;2023-10-09T01:34:32;99123.69;;;12.19;79.20
20710;BME280;10516;51.518;9.864;2023-10-09T01:37:22;99127.91;;;12.15;79.15
20710;BME280;10516;51.518;9.864;2023-10-09T01:39:49;99115.19;;;12.00;79.51
20710;BME280;10516;51.518;9.864;2023-10-09T01:42:16;99110.50;;;12.12;79.80
20710;BME280;10516;51.518;9.864;2023-10-09T01:44:50;99085.44;;;11.96;80.31
20710;BME280;10516;51.518;9.864;2023-10-09T01:47:17;99068.97;;;11.83;80.70
20710;BME280;10516;51.518;9.864;2023-10-09T01:49:44;99086.03;;;11.77;81.33
20710;BME280;10516;51.518;9.864;2023-10-09T01:52:14;99080.69;;;12.03;80.80
20710;BME280;10516;51.518;9.864;2023-10-09T01:54:44;99076.75;;;12.11;80.49
20710;BME280;10516;51.518;9.864;2023-10-09T01:57:15;99043.91;;;11.89;80.54
20710;BME280;10516;51.518;9.864;2023-10-09T01:59:44;99060.72;;;12.11;80.75
20710;BME280;10516;51.518;9.864;2023-10-09T02:02:14;99047.59;;;12.10;80.53
20710;BME280;10516;51.518;9.864;2023-10-09T02:04:56;99050.28;;;12.10;80.92
20710;BME280;10516;51.518;9.864;2023-10-09T02:07:41;99059.09;;;12.10;80.94
20710;BME280;10516;51.518;9.864;2023-10-09T02:10:07;99069.06;;;11.93;81.50
20710;BME280;10516;51.518;9.864;2023-10-09T02:12:52;99088.44;;;11.78;81.63
20710;BME280;10516;51.518;9.864;2023-10-09T02:15:28;99092.69;;;11.74;82.79
20710;BME280;10516;51.518;9.864;2023-10-09T02:18:06;99072.13;;;11.37;84.00
20710;BME280;10516;51.518;9.864;2023-10-09T02:20:45;99086.25;;;11.54;84.23
20710;BME280;10516;51.518;9.864;2023-10-09T02:23:12;99082.72;;;11.48;83.60
20710;BME280;10516;51.518;9.864;2023-10-09T02:25:40;99065.94;;;10.76;87.36
20710;BME280;10516;51.518;9.864;2023-10-09T02:28:11;99083.88;;;10.97;87.81
20710;BME280;10516;51.518;9.864;2023-10-09T02:30:44;99078.97;;;10.89;86.41
20710;BME280;10516;51.518;9.864;2023-10-09T02:33:16;99094.47;;;10.92;88.56
20710;BME280;10516;51.518;9.864;2023-10-09T02:35:53;99083.81;;;11.30;85.52
20710;BME280;10516;51.518;9.864;2023-10-09T02:38:20;99087.84;;;11.11;86.86
20710;BME280;10516;51.518;9.864;2023-10-09T02:40:51;99076.13;;;11.77;83.78
20710;BME280;10516;51.518;9.864;2023-10-09T02:43:43;99081.72;;;11.54;83.91
20710;BME280;10516;51.518;9.864;2023-10-09T02:46:31;99081.75;;;12.02;82.72
20710;BME280;10516;51.518;9.864;2023-10-09T02:48:57;99088.16;;;11.75;84.12
20710;BME280;10516;51.518;9.864;2023-10-09T02:51:30;99083.28;;;11.72;84.03
20710;BME280;10516;51.518;9.864;2023-10-09T02:54:03;99077.25;;;12.08;83.06
20710;BME280;10516;51.518;9.864;2023-10-09T02:56:54;99069.06;;;11.93;83.10
20710;BME280;10516;51.518;9.864;2023-10-09T02:59:20;99061.63;;;11.30;86.50
20710;BME280;10516;51.518;9.864;2023-10-09T03:01:47;99059.28;;;11.77;84.06
20710;BME280;10516;51.518;9.864;2023-10-09T03:04:13;99034.22;;;11.83;84.36
20710;BME280;10516;51.518;9.864;2023-10-09T03:06:40;99033.75;;;11.91;83.76
20710;BME280;10516;51.518;9.864;2023-10-09T03:09:16;99045.63;;;12.00;83.69
20710;BME280;10516;51.518;9.864;2023-10-09T03:11:49;99044.91;;;12.10;83.42
20710;BME280;10516;51.518;9.864;2023-10-09T03:14:19;99041.69;;;12.08;83.60
20710;BME280;10516;51.518;9.864;2023-10-09T03:16:46;99029.72;;;11.88;84.26
20710;BME280;10516;51.518;9.864;2023-10-09T03:19:13;99016.69;;;11.97;83.74
20710;BME280;10516;51.518;9.864;2023-10-09T03:21:38;99011.00;;;11.88;84.56
20710;BME280;10516;51.518;9.864;2023-10-09T03:24:04;99019.16;;;12.03;84.30
20710;BME280;10516;51.518;9.864;2023-10-09T03:26:30;99011.53;;;11.90;85.19
20710;BME280;10516;51.518;9.864;2023-10-09T03:28:56;98993.94;;;11.68;85.32
20710;BME280;10516;51.518;9.864;2023-10-09T03:31:29;99000.69;;;11.54;87.12
20710;BME280;10516;51.518;9.864;2023-10-09T03:33:58;98997.44;;;11.68;86.27
20710;BME280;10516;51.518;9.864;2023-10-09T03:36:23;98998.75;;;11.92;86.06
20710;BME280;10516;51.518;9.864;2023-10-09T03:38:52;98985.00;;;11.57;86.81
20710;BME280;10516;51.518;9.864;2023-10-09T03:41:19;98988.88;;;11.71;87.07
20710;BME280;10516;51.518;9.864;2023-10-09T03:43:45;98992.09;;;11.68;86.79
20710;BME280;10516;51.518;9.864;2023-10-09T03:46:11;99001.72;;;11.69;87.31
20710;BME280;10516;51.518;9.864;2023-10-09T03:49:00;99007.41;;;12.04;85.69
20710;BME280;10516;51.518;9.864;2023-10-09T03:51:29;98979.44;;;11.90;85.65
20710;BME280;10516;51.518;9.864;2023-10-09T03:53:55;99009.88;;;11.84;87.47
20710;BME280;10516;51.518;9.864;2023-10-09T03:56:20;98996.38;;;11.96;87.10
20710;BME280;10516;51.518;9.864;2023-10-09T03:58:50;99014.38;;;11.79;87.74
20710;BME280;10516;51.518;9.864;2023-10-09T04:01:17;99006.56;;;11.51;89.18
20710;BME280;10516;51.518;9.864;2023-10-09T04:03:51;99017.09;;;11.36;90.36
20710;BME280;10516;51.518;9.864;2023-10-09T04:06:23;99007.06;;;11.48;88.92
20710;BME280;10516;51.518;9.864;2023-10-09T04:08:48;98980.59;;;11.24;90.17
20710;BME280;10516;51.518;9.864;2023-10-09T04:11:16;98997.19;;;11.48;89.95
20710;BME280;10516;51.518;9.864;2023-10-09T04:13:45;98997.81;;;11.55;89.59
20710;BME280;10516;51.518;9.864;2023-10-09T04:16:12;98969.28;;;11.17;90.45
20710;BME280;10516;51.518;9.864;2023-10-09T04:18:56;98954.38;;;11.21;90.24
20710;BME280;10516;51.518;9.864;2023-10-09T04:21:22;98978.69;;;11.20;91.43
20710;BME280;10516;51.518;9.864;2023-10-09T04:24:08;98968.59;;;10.84;93.90
20710;BME280;10516;51.518;9.864;2023-10-09T04:26:40;98962.13;;;10.80;95.26
20710;BME280;10516;51.518;9.864;2023-10-09T04:29:16;98959.84;;;11.10;93.24
20710;BME280;10516;51.518;9.864;2023-10-09T04:32:04;98961.31;;;11.44;91.29
20710;BME280;10516;51.518;9.864;2023-10-09T04:34:33;98959.75;;;11.48;92.86
20710;BME280;10516;51.518;9.864;2023-10-09T04:37:02;98951.25;;;11.78;88.02
20710;BME280;10516;51.518;9.864;2023-10-09T04:39:50;98953.03;;;11.67;90.15
20710;BME280;10516;51.518;9.864;2023-10-09T04:42:36;98946.66;;;11.73;90.09
20710;BME280;10516;51.518;9.864;2023-10-09T04:45:05;98953.22;;;12.19;85.93
20710;BME280;10516;51.518;9.864;2023-10-09T04:47:33;98929.28;;;12.02;87.34
20710;BME280;10516;51.518;9.864;2023-10-09T04:50:06;98924.25;;;12.11;85.58
20710;BME280;10516;51.518;9.864;2023-10-09T04:52:39;98937.31;;;12.02;87.66
20710;BME280;10516;51.518;9.864;2023-10-09T04:55:06;98946.22;;;12.13;87.11
20710;BME280;10516;51.518;9.864;2023-10-09T04:57:33;98945.47;;;11.86;91.83
20710;BME280;10516;51.518;9.864;2023-10-09T05:00:08;98938.00;;;11.88;89.35
20710;BME280;10516;51.518;9.864;2023-10-09T05:05:40;98947.63;;;11.89;90.22
20710;BME280;10516;51.518;9.864;2023-10-09T05:18:53;98943.28;;;12.15;88.84
20710;BME280;10516;51.518;9.864;2023-10-09T05:21:33;98941.25;;;12.27;88.14
20710;BME280;10516;51.518;9.864;2023-10-09T05:24:10;98944.78;;;12.37;87.42
20710;BME280;10516;51.518;9.864;2023-10-09T05:26:39;98950.41;;;12.36;87.82
20710;BME280;10516;51.518;9.864;2023-10-09T05:29:18;98950.25;;;12.52;86.87
20710;BME280;10516;51.518;9.864;2023-10-09T05:32:05;98956.69;;;12.56;86.21
20710;BME280;10516;51.518;9.864;2023-10-09T05:34:43;98956.97;;;12.55;86.14
20710;BME280;10516;51.518;9.864;2023-10-09T05:37:32;98968.44;;;12.50;87.64
20710;BME280;10516;51.518;9.864;2023-10-09T05:40:03;98967.84;;;12.43;87.34
20710;BME280;10516;51.518;9.864;2023-10-09T05:42:33;98983.69;;;12.50;86.86
20710;BME280;10516;51.518;9.864;2023-10-09T05:45:06;98992.25;;;12.52;87.45
20710;BME280;10516;51.518;9.864;2023-10-09T05:47:51;98980.72;;;12.46;87.05
20710;BME280;10516;51.518;9.864;2023-10-09T05:50:26;98986.13;;;12.51;85.94
20710;BME280;10516;51.518;9.864;2023-10-09T05:52:53;98982.31;;;12.11;88.88
20710;BME280;10516;51.518;9.864;2023-10-09T05:55:19;98992.25;;;11.88;92.36
20710;BME280;10516;51.518;9.864;2023-10-09T05:57:55;98990.75;;;11.97;91.00
20710;BME280;10516;51.518;9.864;2023-10-09T06:00:27;98999.19;;;11.84;92.01
20710;BME280;10516;51.518;9.864;2023-10-09T06:03:11;98984.50;;;11.87;90.81
20710;BME280;10516;51.518;9.864;2023-10-09T06:05:55;99006.84;;;12.02;90.50
20710;BME280;10516;51.518;9.864;2023-10-09T06:08:22;98992.78;;;12.12;89.25
20710;BME280;10516;51.518;9.864;2023-10-09T06:10:53;98984.22;;;12.15;87.85
20710;BME280;10516;51.518;9.864;2023-10-09T06:13:34;98989.22;;;12.07;89.19
20710;BME280;10516;51.518;9.864;2023-10-09T06:16:06;98999.97;;;12.43;86.55
20710;BME280;10516;51.518;9.864;2023-10-09T06:18:45;99014.38;;;12.37;88.20
20710;BME280;10516;51.518;9.864;2023-10-09T06:21:10;99029.72;;;12.15;91.14
20710;BME280;10516;51.518;9.864;2023-10-09T06:23:56;99017.41;;;11.87;92.62
20710;BME280;10516;51.518;9.864;2023-10-09T06:26:42;99023.78;;;11.60;95.90
20710;BME280;10516;51.518;9.864;2023-10-09T06:29:23;99034.66;;;11.75;95.05
20710;BME280;10516;51.518;9.864;2023-10-09T06:32:05;99032.16;;;11.90;93.01
20710;BME280;10516;51.518;9.864;2023-10-09T06:34:49;99033.94;;;12.38;88.88
20710;BME280;10516;51.518;9.864;2023-10-09T06:37:18;99015.97;;;12.33;88.59
20710;BME280;10516;51.518;9.864;2023-10-09T06:42:34;99019.47;;;12.75;85.97
20710;BME280;10516;51.518;9.864;2023-10-09T06:45:07;99029.19;;;12.87;86.64
20710;BME280;10516;51.518;9.864;2023-10-09T06:47:34;99018.69;;;12.80;85.98
20710;BME280;10516;51.518;9.864;2023-10-09T06:50:11;99028.94;;;12.88;86.47
20710;BME280;10516;51.518;9.864;2023-10-09T06:52:45;99028.34;;;12.81;86.32
20710;BME280;10516;51.518;9.864;2023-10-09T06:55:27;99020.38;;;12.91;86.37
20710;BME280;10516;51.518;9.864;2023-10-09T06:58:01;99034.91;;;13.00;85.92
20710;BME280;10516;51.518;9.864;2023-10-09T07:00:34;99027.31;;;12.87;86.48
20710;BME280;10516;51.518;9.864;2023-10-09T07:03:21;99025.28;;;13.04;85.28
20710;BME280;10516;51.518;9.864;2023-10-09T07:06:09;99044.25;;;12.98;86.58
20710;BME280;10516;51.518;9.864;2023-10-09T07:08:37;99014.53;;;12.99;85.74
20710;BME280;10516;51.518;9.864;2023-10-09T07:11:06;99032.97;;;12.91;86.52
20710;BME280;10516;51.518;9.864;2023-10-09T07:13:47;99045.56;;;12.90;87.92
20710;BME280;10516;51.518;9.864;2023-10-09T07:16:22;99040.75;;;12.92;87.50
20710;BME280;10516;51.518;9.864;2023-10-09T07:19:06;99059.00;;;13.00;86.94
20710;BME280;10516;51.518;9.864;2023-10-09T07:22:01;99053.22;;;13.08;86.96
20710;BME280;10516;51.518;9.864;2023-10-09T07:24:32;99039.28;;;13.11;86.55
20710;BME280;10516;51.518;9.864;2023-10-09T07:27:09;99051.09;;;12.78;89.31
20710;BME280;10516;51.518;9.864;2023-10-09T07:29:38;99066.00;;;13.01;87.52
20710;BME280;10516;51.518;9.864;2023-10-09T07:32:17;99069.97;;;12.94;88.54
20710;BME280;10516;51.518;9.864;2023-10-09T07:34:49;99075.09;;;12.95;87.85
20710;BME280;10516;51.518;9.864;2023-10-09T07:37:28;99065.47;;;13.04;87.58
20710;BME280;10516;51.518;9.864;2023-10-09T07:40:02;99060.75;;;13.16;86.75
20710;BME280;10516;51.518;9.864;2023-10-09T07:42:32;99070.72;;;13.21;86.70
20710;BME280;10516;51.518;9.864;2023-10-09T07:45:07;99089.25;;;13.27;86.86
20710;BME280;10516;51.518;9.864;2023-10-09T07:47:49;99074.44;;;13.20;86.18
20710;BME280;10516;51.518;9.864;2023-10-09T07:50:36;99079.28;;;13.23;86.70
20710;BME280;10516;51.518;9.864;2023-10-09T07:53:14;99079.25;;;13.18;87.50
20710;BME280;10516;51.518;9.864;2023-10-09T07:55:40;99090.28;;;13.26;87.12
20710;BME280;10516;51.518;9.864;2023-10-09T07:58:11;99080.41;;;13.37;86.78
20710;BME280;10516;51.518;9.864;2023-10-09T08:00:37;99087.38;;;13.33;86.93
20710;BME280;10516;51.518;9.864;2023-10-09T08:03:23;99084.47;;;13.34;86.97
20710;BME280;10516;51.518;9.864;2023-10-09T08:05:57;99086.59;;;13.37;87.19
20710;BME280;10516;51.518;9.864;2023-10-09T08:08:33;99074.47;;;13.25;87.83
20710;BME280;10516;51.518;9.864;2023-10-09T08:10:58;99081.94;;;13.18;88.37
20710;BME280;10516;51.518;9.864;2023-10-09T08:13:44;99090.56;;;13.25;88.39
20710;BME280;10516;51.518;9.864;2023-10-09T08:16:15;99077.13;;;13.20;88.74
20710;BME280;10516;51.518;9.864;2023-10-09T08:18:47;99068.34;;;13.29;87.30
20710;BME280;10516;51.518;9.864;2023-10-09T08:21:17;99085.84;;;13.47;86.98
20710;BME280;10516;51.518;9.864;2023-10-09T08:23:42;99068.91;;;13.36;87.31
20710;BME280;10516;51.518;9.864;2023-10-09T08:26:18;99070.53;;;13.42;87.50
20710;BME280;10516;51.518;9.864;2023-10-09T08:29:12;99070.56;;;13.47;87.76
20710;BME280;10516;51.518;9.864;2023-10-09T08:31:44;99063.31;;;13.43;88.88
20710;BME280;10516;51.518;9.864;2023-10-09T08:34:11;99069.28;;;13.65;87.78
20710;BME280;10516;51.518;9.864;2023-10-09T08:36:49;99069.03;;;13.72;87.86
20710;BME280;10516;51.518;9.864;2023-10-09T08:39:21;99057.53;;;13.76;87.29
20710;BME280;10516;51.518;9.864;2023-10-09T08:41:56;99062.94;;;13.86;87.46
20710;BME280;10516;51.518;9.864;2023-10-09T08:44:25;99071.22;;;13.80;89.79
20710;BME280;10516;51.518;9.864;2023-10-09T08:46:54;99060.22;;;13.81;87.70
20710;BME280;10516;51.518;9.864;2023-10-09T08:49:20;99062.44;;;13.99;88.30
20710;BME280;10516;51.518;9.864;2023-10-09T08:51:49;99067.25;;;14.02;87.86
20710;BME280;10516;51.518;9.864;2023-10-09T08:54:18;99054.34;;;13.89;88.81
20710;BME280;10516;51.518;9.864;2023-10-09T08:56:45;99041.75;;;13.95;88.26
20710;BME280;10516;51.518;9.864;2023-10-09T08:59:20;99051.16;;;14.02;88.82
20710;BME280;10516;51.518;9.864;2023-10-09T09:01:49;99039.56;;;13.82;91.41
20710;BME280;10516;51.518;9.864;2023-10-09T09:04:39;99046.31;;;14.04;89.05
20710;BME280;10516;51.518;9.864;2023-10-09T09:07:26;99038.56;;;14.18;88.14
20710;BME280;10516;51.518;9.864;2023-10-09T09:09:56;99029.16;;;14.20;87.51
20710;BME280;10516;51.518;9.864;2023-10-09T09:12:43;99012.00;;;14.21;87.25
20710;BME280;10516;51.518;9.864;2023-10-09T09:15:16;99029.44;;;14.19;88.13
20710;BME280;10516;51.518;9.864;2023-10-09T09:17:45;99047.22;;;14.40;87.62
20710;BME280;10516;51.518;9.864;2023-10-09T09:20:24;99055.00;;;14.37;87.69
20710;BME280;10516;51.518;9.864;2023-10-09T09:22:56;99042.63;;;14.36;87.83
20710;BME280;10516;51.518;9.864;2023-10-09T09:25:22;99040.75;;;14.36;88.09
20710;BME280;10516;51.518;9.864;2023-10-09T09:27:49;99049.34;;;14.53;86.76
20710;BME280;10516;51.518;9.864;2023-10-09T09:30:25;99034.84;;;14.49;87.57
20710;BME280;10516;51.518;9.864;2023-10-09T09:32:56;99051.22;;;14.53;87.12
20710;BME280;10516;51.518;9.864;2023-10-09T09:36:01;99046.69;;;14.43;87.63
20710;BME280;10516;51.518;9.864;2023-10-09T09:38:29;99061.72;;;14.54;86.78
20710;BME280;10516;51.518;9.864;2023-10-09T09:40:56;99032.44;;;14.48;87.07
20710;BME280;10516;51.518;9.864;2023-10-09T09:43:23;99052.03;;;14.48;87.04
20710;BME280;10516;51.518;9.864;2023-10-09T09:45:49;99024.09;;;14.44;87.48
20710;BME280;10516;51.518;9.864;2023-10-09T09:48:18;99024.41;;;14.48;87.44
20710;BME280;10516;51.518;9.864;2023-10-09T09:50:44;99022.22;;;14.45;87.77
20710;BME280;10516;51.518;9.864;2023-10-09T09:53:12;99036.22;;;14.52;87.36
20710;BME280;10516;51.518;9.864;2023-10-09T09:55:52;99040.78;;;14.56;88.26
20710;BME280;10516;51.518;9.864;2023-10-09T09:58:21;99025.19;;;14.43;88.58
20710;BME280;10516;51.518;9.864;2023-10-09T10:00:53;99025.72;;;14.45;88.68
20710;BME280;10516;51.518;9.864;2023-10-09T10:03:27;99018.19;;;14.42;88.94
20710;BME280;10516;51.518;9.864;2023-10-09T10:05:56;99013.91;;;14.56;88.42
20710;BME280;10516;51.518;9.864;2023-10-09T10:08:23;99003.16;;;14.46;89.04
20710;BME280;10516;51.518;9.864;2023-10-09T10:10:57;98997.25;;;14.49;89.27
20710;BME280;10516;51.518;9.864;2023-10-09T10:16:16;98993.47;;;14.55;88.62
20710;BME280;10516;51.518;9.864;2023-10-09T10:19:01;98996.19;;;14.45;89.08
20710;BME280;10516;51.518;9.864;2023-10-09T10:21:47;98973.09;;;14.49;89.01
20710;BME280;10516;51.518;9.864;2023-10-09T10:35:20;98970.09;;;14.66;88.43
20710;BME280;10516;51.518;9.864;2023-10-09T10:37:58;98966.59;;;14.70;88.02
20710;BME280;10516;51.518;9.864;2023-10-09T10:40:33;98965.53;;;14.66;88.56
20710;BME280;10516;51.518;9.864;2023-10-09T10:43:06;98980.59;;;14.62;89.49
20710;BME280;10516;51.518;9.864;2023-10-09T10:45:35;98978.41;;;14.74;88.40
20710;BME280;10516;51.518;9.864;2023-10-09T10:48:04;98959.59;;;14.79;87.40
20710;BME280;10516;51.518;9.864;2023-10-09T10:50:33;98946.16;;;14.74;87.43
20710;BME280;10516;51.518;9.864;2023-10-09T10:53:14;98977.31;;;14.90;86.66
20710;BME280;10516;51.518;9.864;2023-10-09T10:55:58;98971.41;;;14.93;86.56
20710;BME280;10516;51.518;9.864;2023-10-09T10:58:43;98965.97;;;14.98;86.48
20710;BME280;10516;51.518;9.864;2023-10-09T11:01:39;98957.13;;;14.98;86.62
20710;BME280;10516;51.518;9.864;2023-10-09T11:04:39;98970.78;;;15.12;86.38
20710;BME280;10516;51.518;9.864;2023-10-09T11:07:09;98971.06;;;15.10;87.13
20710;BME280;10516;51.518;9.864;2023-10-09T11:09:50;98971.88;;;15.11;86.27
20710;BME280;10516;51.518;9.864;2023-10-09T11:12:32;98962.16;;;15.15;85.96
20710;BME280;10516;51.518;9.864;2023-10-09T11:15:51;98957.53;;;15.25;86.29
20710;BME280;10516;51.518;9.864;2023-10-09T11:18:40;98963.22;;;15.14;86.75
20710;BME280;10516;51.518;9.864;2023-10-09T11:21:13;98957.34;;;15.12;87.53
20710;BME280;10516;51.518;9.864;2023-10-09T11:23:40;98926.75;;;15.02;87.62
20710;BME280;10516;51.518;9.864;2023-10-09T11:26:18;98944.97;;;15.11;87.64
20710;BME280;10516;51.518;9.864;2023-10-09T11:32:03;98918.41;;;14.99;90.29
20710;BME280;10516;51.518;9.864;2023-10-09T11:34:34;98920.50;;;15.12;89.34
20710;BME280;10516;51.518;9.864;2023-10-09T11:37:01;98940.81;;;15.33;87.52
20710;BME280;10516;51.518;9.864;2023-10-09T11:39:30;98942.16;;;15.41;87.41
20710;BME280;10516;51.518;9.864;2023-10-09T11:42:08;98924.66;;;15.48;85.99
20710;BME280;10516;51.518;9.864;2023-10-09T11:44:35;98929.53;;;15.46;85.95
20710;BME280;10516;51.518;9.864;2023-10-09T11:47:00;98943.22;;;15.50;86.04
20710;BME280;10516;51.518;9.864;2023-10-09T11:49:52;98948.81;;;15.58;85.48
20710;BME280;10516;51.518;9.864;2023-10-09T11:52:31;98944.84;;;15.46;85.77
20710;BME280;10516;51.518;9.864;2023-10-09T11:54:59;98949.09;;;15.57;85.31
20710;BME280;10516;51.518;9.864;2023-10-09T11:57:25;98950.34;;;15.69;85.06
20710;BME280;10516;51.518;9.864;2023-10-09T12:00:03;98944.25;;;15.54;85.16
20710;BME280;10516;51.518;9.864;2023-10-09T12:02:36;98937.53;;;15.51;84.97
20710;BME280;10516;51.518;9.864;2023-10-09T12:05:10;98954.25;;;15.48;85.58
20710;BME280;10516;51.518;9.864;2023-10-09T12:07:45;98947.25;;;15.42;85.47
20710;BME280;10516;51.518;9.864;2023-10-09T12:10:10;98952.91;;;15.41;84.88
20710;BME280;10516;51.518;9.864;2023-10-09T12:12:39;98971.75;;;15.46;85.71
20710;BME280;10516;51.518;9.864;2023-10-09T12:15:06;98976.59;;;15.34;85.04
20710;BME280;10516;51.518;9.864;2023-10-09T12:17:31;98997.56;;;15.47;85.42
20710;BME280;10516;51.518;9.864;2023-10-09T12:19:57;99015.06;;;15.39;85.67
20710;BME280;10516;51.518;9.864;2023-10-09T12:22:23;99005.66;;;15.32;86.45
20710;BME280;10516;51.518;9.864;2023-10-09T12:24:52;99002.50;;;15.20;87.62
20710;BME280;10516;51.518;9.864;2023-10-09T12:27:18;99015.41;;;15.08;88.91
20710;BME280;10516;51.518;9.864;2023-10-09T12:29:45;99006.53;;;15.12;87.56
20710;BME280;10516;51.518;9.864;2023-10-09T12:32:11;99011.47;;;14.85;89.28
20710;BME280;10516;51.518;9.864;2023-10-09T12:34:37;99007.94;;;14.94;89.57
20710;BME280;10516;51.518;9.864;2023-10-09T12:37:04;98997.25;;;14.69;89.73
20710;BME280;10516;51.518;9.864;2023-10-09T12:39:29;99004.47;;;14.79;90.08
20710;BME280;10516;51.518;9.864;2023-10-09T12:41:59;99001.78;;;14.79;90.46
20710;BME280;10516;51.518;9.864;2023-10-09T12:44:32;99007.16;;;14.79;91.70
20710;BME280;10516;51.518;9.864;2023-10-09T12:46:59;99014.41;;;14.83;91.69
20710;BME280;10516;51.518;9.864;2023-10-09T12:49:29;99019.78;;;14.88;90.94
20710;BME280;10516;51.518;9.864;2023-10-09T12:51:54;99011.19;;;14.81;91.85
20710;BME280;10516;51.518;9.864;2023-10-09T12:54:20;99011.19;;;14.86;91.43
20710;BME280;10516;51.518;9.864;2023-10-09T12:56:52;99003.16;;;14.76;91.55
20710;BME280;10516;51.518;9.864;2023-10-09T12:59:17;99018.16;;;14.97;91.58
20710;BME280;10516;51.518;9.864;2023-10-09T13:01:45;99018.69;;;14.94;92.32
20710;BME280;10516;51.518;9.864;2023-10-09T13:04:14;99013.88;;;14.91;92.38
20710;BME280;10516;51.518;9.864;2023-10-09T13:06:46;99008.75;;;14.95;92.87
20710;BME280;10516;51.518;9.864;2023-10-09T13:09:13;99007.69;;;14.96;92.10
20710;BME280;10516;51.518;9.864;2023-10-09T13:11:39;99003.66;;;14.93;92.75
20710;BME280;10516;51.518;9.864;2023-10-09T13:14:06;99014.41;;;14.93;92.81
20710;BME280;10516;51.518;9.864;2023-10-09T13:16:41;99013.31;;;14.94;93.44
20710;BME280;10516;51.518;9.864;2023-10-09T13:19:07;99001.78;;;14.84;93.50
20710;BME280;10516;51.518;9.864;2023-10-09T13:21:35;98982.72;;;14.75;92.97
20710;BME280;10516;51.518;9.864;2023-10-09T13:24:03;98999.34;;;14.92;92.24
20710;BME280;10516;51.518;9.864;2023-10-09T13:26:28;99010.63;;;14.94;93.21
20710;BME280;10516;51.518;9.864;2023-10-09T13:28:56;99020.28;;;15.00;93.13
20710;BME280;10516;51.518;9.864;2023-10-09T13:31:22;99014.13;;;14.95;92.51
20710;BME280;10516;51.518;9.864;2023-10-09T13:33:52;99018.69;;;14.99;92.70
20710;BME280;10516;51.518;9.864;2023-10-09T13:36:21;99031.59;;;14.97;92.75
20710;BME280;10516;51.518;9.864;2023-10-09T13:39:07;99018.97;;;14.93;92.37
20710;BME280;10516;51.518;9.864;2023-10-09T13:41:49;99019.78;;;14.88;93.17
20710;BME280;10516;51.518;9.864;2023-10-09T13:44:16;99016.81;;;14.90;93.21
20710;BME280;10516;51.518;9.864;2023-10-09T13:46:41;98998.03;;;14.75;94.49
20710;BME280;10516;51.518;9.864;2023-10-09T13:49:07;99012.00;;;14.82;95.42
20710;BME280;10516;51.518;9.864;2023-10-09T13:51:38;99000.19;;;14.73;95.37
20710;BME280;10516;51.518;9.864;2023-10-09T13:54:09;99017.91;;;14.84;95.00
20710;BME280;10516;51.518;9.864;2023-10-09T13:56:34;99012.00;;;14.82;95.81
20710;BME280;10516;51.518;9.864;2023-10-09T13:59:04;99011.47;;;14.80;96.26
20710;BME280;10516;51.518;9.864;2023-10-09T14:01:36;99005.78;;;14.96;94.76
20710;BME280;10516;51.518;9.864;2023-10-09T14:04:01;99009.03;;;14.88;95.75